Nearby METAR Reports

 

EBAW - Antwerp/Deurne, Belgium
Distance from station: ZZO 9km
Ververst: 20/06/2024 07:50
Helder
Helder
 Wind van ONO
Wind: ONO 9 km/h
Temperatuur: 14°C
Dauwpunt: 11°C
Vochtigheid: 82%
Barometer: 1020 hPa
Overzicht: Helder
Visibility: greater than 10 km
2024/06/20 05:50 EBAW 200550Z 07005KT CAVOK 14/11 Q1020 NOSIG
EHWO - Woensdrecht Rnla, Netherlands
Distance from station: NNW 20km
Ververst: 20/06/2024 07:25
Zwaar bewolkt
Zwaar bewolkt
 Wind van ONO
Wind: ONO 11 km/h
Temperatuur: 13°C
Dauwpunt: 11°C
Vochtigheid: 88%
Barometer: 1020 hPa
Clouds: Zwaar bewolkt
Visibility: 10 km
Cloud details: Zwaar bewolkt 5182 m
2024/06/20 05:25 EHWO 200525Z AUTO 07006KT 040V110 9999 OVC170 13/11 Q1020 BLU
 
EBBR - Brussels Nationa, Belgium
Distance from station: Z 43km
Ververst: 20/06/2024 07:50
Helder
Helder
 Wind van NO
Wind: NO 6 km/h
Temperatuur: 13°C
Dauwpunt: 12°C
Vochtigheid: 94%
Barometer: 1020 hPa
Overzicht: Helder
Visibility: greater than 10 km
2024/06/20 05:50 EBBR 200550Z 04003KT CAVOK 13/12 Q1020 NOSIG
EHGR - Gilze-Rijen Rnla, Netherlands
Distance from station: NO 47km
Ververst: 20/06/2024 07:25
Zwaar bewolkt
Zwaar bewolkt
 Wind van ONO
Wind: ONO 9 km/h
Temperatuur: 14°C
Dauwpunt: 11°C
Vochtigheid: 82%
Barometer: 1020 hPa
Clouds: Zwaar bewolkt
Visibility: 10 km
Cloud details: Meestal bewolkt 5182 m
Zwaar bewolkt 7010 m
2024/06/20 05:25 EHGR 200525Z AUTO 07005KT 020V120 9999 BKN170 OVC230 14/11 Q1020 BLU
 
EBDT - Schaffen, Belgium
Distance from station: OZO 54km
Ververst: 20/06/2024 07:25
Helder
Helder
 Wind van O
Wind: O 7 km/h
Temperatuur: 14°C
Dauwpunt: 11°C
Vochtigheid: 82%
Barometer: 1020 hPa
Clouds: Helder
Visibility: 10 km
2024/06/20 05:25 EBDT 200525Z AUTO 08004KT 9999 NCD 14/11 Q1020 BLU
EHFS - Vlissingen, Netherlands
Distance from station: WNW 60km
Ververst: 20/06/2024 07:25
Gedeeltelijk bewolkt
Gedeeltelijk bewolkt
 Wind van NO
Wind: NO 15 km/h
Temperatuur: 13°C
Dauwpunt: 12°C
Vochtigheid: 94%
Barometer: 1020 hPa
Clouds: Gedeeltelijk bewolkt
Visibility: 10 km
2024/06/20 05:25 EHFS 200525Z AUTO 04008KT 9999 NSC 13/12 Q1020
 
EBBE - Beauvechain (baf, Belgium
Distance from station: ZZO 64km
Ververst: 20/06/2024 07:25
Meestal bewolkt
Meestal bewolkt
 Wind van ONO
Wind: ONO 7 km/h
Temperatuur: 13°C
Dauwpunt: 12°C
Vochtigheid: 94%
Barometer: 1019 hPa
Clouds: Meestal bewolkt
Visibility: 10 km
Cloud details: Gedeeltelijk bewolkt 3658 m
Meestal bewolkt 4572 m
2024/06/20 05:25 EBBE 200525Z 06004KT 9999 SCT120 BKN150 13/12 Q1019 BLU BLU
EHEH - Eindhoven Rnlafb, Netherlands
Distance from station: ONO 69km
Ververst: 20/06/2024 07:25
Zwaar bewolkt
Zwaar bewolkt
 Wind van ONO
Wind: ONO 9 km/h
Temperatuur: 14°C
Dauwpunt: 11°C
Vochtigheid: 82%
Barometer: 1020 hPa
Clouds: Zwaar bewolkt
Visibility: 10 km
Cloud details: Gedeeltelijk bewolkt 5486 m
Gedeeltelijk bewolkt 7315 m
Zwaar bewolkt 9144 m
2024/06/20 05:25 EHEH 200525Z AUTO 06005KT 9999 SCT180 SCT240 OVC300 14/11 Q1020 BLU NOSIG
 
EBBL - Kleine-Brogel(Ba, Belgium
Distance from station: O 74km
Ververst: 20/06/2024 07:34
Meestal bewolkt
Meestal bewolkt
 Wind van varies
Wind: varies 4 km/h
Temperatuur: 14°C
Dauwpunt: 11°C
Vochtigheid: 82%
Barometer: 1020 hPa
Clouds: Meestal bewolkt
Visibility: 10 km
Cloud details: Meestal bewolkt 9144 m
2024/06/20 05:34 EBBL 200534Z VRB02KT 9999 BKN300 14/11 Q1020 BLU BLU
EHRD - Rotterdam Airpor, Netherlands
Distance from station: N 75km
Ververst: 20/06/2024 07:25
Gedeeltelijk bewolkt
Gedeeltelijk bewolkt
 Wind van ONO
Wind: ONO 11 km/h
Temperatuur: 12°C
Dauwpunt: 10°C
Vochtigheid: 88%
Barometer: 1020 hPa
Clouds: Gedeeltelijk bewolkt
Visibility: 10 km
2024/06/20 05:25 EHRD 200525Z AUTO 06006KT 030V090 9999 NSC 12/10 Q1020 NOSIG
 
EHSC - Goeree Le Sea, Netherlands
Distance from station: NW 89km
Ververst: 20/06/2024 07:25

 Wind van NO
Wind: NO 26 km/h
Temperatuur: 14°C
Dauwpunt: 11°C
Vochtigheid: 82%
Barometer: 1021 hPa
Visibility: 10 km
2024/06/20 05:25 EHSC 200525Z AUTO 05014KT 9999 ///////// 14/11 Q1021 W16/H8
EBCI - Charleroi/Gossel, Belgium
Distance from station: Z 90km
Ververst: 20/06/2024 07:50
Helder
Helder
 Wind van NO
Wind: NO 13 km/h
Temperatuur: 14°C
Dauwpunt: 11°C
Vochtigheid: 82%
Overzicht: Helder
Visibility: greater than 10 km
2024/06/20 05:50 EBCI 200550Z 05007KT 020V080 CAVOK 14/11 Q101
 
EBCV - Chievres Ab, Belgium
Distance from station: ZZW 90km
Ververst: 20/06/2024 07:25
Zwaar bewolkt
Zwaar bewolkt
 Wind van NNO
Wind: NNO 6 km/h
Temperatuur: 14°C
Dauwpunt: 12°C
Vochtigheid: 88%
Barometer: 1019 hPa
Clouds: Zwaar bewolkt
Visibility: 10 km
Cloud details: Few Clouds 2438 m
Zwaar bewolkt 3048 m
2024/06/20 05:25 EBCV 200525Z AUTO 03003KT 9999 FEW080/// OVC100/// 14/12 Q1019 BLU
EHVK - Volkel Rnlafb, Netherlands
Distance from station: ONO 97km
Ververst: 20/06/2024 07:25
Zwaar bewolkt
Zwaar bewolkt
 Wind van ONO
Wind: ONO 11 km/h
Temperatuur: 14°C
Dauwpunt: 11°C
Vochtigheid: 82%
Barometer: 1020 hPa
Clouds: Zwaar bewolkt
Visibility: 10 km
Cloud details: Few Clouds 7010 m
Zwaar bewolkt 10058 m
2024/06/20 05:25 EHVK 200525Z AUTO 06006KT 020V130 9999 FEW230 OVC330 14/11 Q1020 BLU
 
EBLG - Bierset/Liege (c, Belgium
Distance from station: ZO 102km
Ververst: 20/06/2024 07:50
Helder
Helder
 Wind van N
Wind: N 9 km/h
Temperatuur: 14°C
Dauwpunt: 12°C
Vochtigheid: 88%
Overzicht: Helder
Visibility: greater than 10 km
2024/06/20 05:50 EBLG 200550Z 01005KT 340V040 CAVOK 14/12 Q102
EHBK - Zuid-Limburg/Bee, Netherlands
Distance from station: OZO 102km
Ververst: 20/06/2024 07:25
Gedeeltelijk bewolkt
Gedeeltelijk bewolkt
 Wind van O
Wind: O 11 km/h
Temperatuur: 14°C
Dauwpunt: 11°C
Vochtigheid: 82%
Barometer: 1019 hPa
Clouds: Gedeeltelijk bewolkt
Visibility: 10 km
2024/06/20 05:25 EHBK 200525Z AUTO 09006KT 060V120 9999 NSC 14/11 Q1019 NOSIG
 
EBOS - Oostende Airport, Belgium
Distance from station: W 108km
Ververst: 20/06/2024 07:50
Helder
Helder
 Wind van ONO
Wind: ONO 13 km/h
Temperatuur: 15°C
Dauwpunt: 12°C
Vochtigheid: 82%
Barometer: 1021 hPa
Overzicht: Helder
Visibility: greater than 10 km
2024/06/20 05:50 EBOS 200550Z 07007KT CAVOK 15/12 Q1021 NOSIG
EHSA - Euro Platform, Netherlands
Distance from station: NW 112km
Ververst: 20/06/2024 07:25

 Wind van NO
Wind: NO 20 km/h
Temperatuur: 15°C
Dauwpunt: 11°C
Vochtigheid: 77%
Barometer: 1021 hPa
Visibility: 10 km
2024/06/20 05:25 EHSA 200525Z AUTO 05011KT 9999 ///////// 15/11 Q1021 W15/H9
 
EHAM - Amsterdam/Schiph, Netherlands
Distance from station: NNO 118km
Ververst: 20/06/2024 07:25
Helder
Helder
 Wind van NO
Wind: NO 15 km/h
Temperatuur: 13°C
Dauwpunt: 11°C
Vochtigheid: 88%
Barometer: 1021 hPa
Overzicht: Helder
Visibility: greater than 10 km
2024/06/20 05:25 EHAM 200525Z 05008KT 010V160 CAVOK 13/11 Q1021 NOSIG
ETNG - Geilenkirchen(Na, Germany
Distance from station: OZO 118km
Ververst: 20/06/2024 07:50
Helder
Helder
 Wind van O
Wind: O 9 km/h
Temperatuur: 14°C
Dauwpunt: 12°C
Vochtigheid: 88%
Barometer: 1020 hPa
Overzicht: Helder
Visibility: greater than 10 km
2024/06/20 05:50 ETNG 200550Z 10005KT CAVOK 14/12 Q1020 NOSIG